Time;durP1;ratioP1;P1;durP2;ratioP2;P2;SDS_P1;SDS_P2;PMS_P1;PMS_P2;Temp;Humidity;BMP_temperature;BMP_pressure;BME280_temperature;BME280_humidity;BME280_pressure;Samples;Min_cycle;Max_cycle;Signal;HPM_P1;HPM_P2
2022/10/15 00:02:59;;;;;;;28.30;16.03;;;;;;;2.20;100.00;100992.34;1796360;79;25510;-64
2022/10/15 00:05:25;;;;;;;30.97;15.53;;;;;;;2.22;100.00;100994.97;1756347;81;21053;-65
2022/10/15 00:07:52;;;;;;;29.42;14.65;;;;;;;2.19;100.00;100991.91;1756277;81;21581;-64
2022/10/15 00:10:20;;;;;;;34.08;16.67;;;;;;;2.23;100.00;100989.80;1756325;81;21010;-65
2022/10/15 00:12:48;;;;;;;30.65;15.50;;;;;;;2.24;100.00;100991.53;1756235;81;21009;-65
2022/10/15 00:15:15;;;;;;;36.68;16.25;;;;;;;2.26;100.00;100991.55;1756206;81;21015;-65
2022/10/15 00:17:42;;;;;;;34.48;16.85;;;;;;;2.30;100.00;100986.41;1756088;81;21041;-66
2022/10/15 00:20:10;;;;;;;29.65;16.05;;;;;;;2.34;100.00;100985.99;1756204;81;21479;-65
2022/10/15 00:22:37;;;;;;;31.10;16.57;;;;;;;2.38;100.00;100983.88;1756314;81;21119;-64
2022/10/15 00:25:05;;;;;;;32.15;15.40;;;;;;;2.40;100.00;100983.90;1756309;81;21120;-66
2022/10/15 00:27:34;;;;;;;29.45;14.73;;;;;;;2.41;100.00;100980.43;1756812;81;21021;-64
2022/10/15 00:30:02;;;;;;;26.93;14.33;;;;;;;2.41;100.00;100972.63;1752563;81;21052;-64
2022/10/15 00:32:30;;;;;;;33.55;14.95;;;;;;;2.42;100.00;100971.80;1747819;81;21071;-64
2022/10/15 00:34:58;;;;;;;27.90;14.35;;;;;;;2.44;100.00;100975.25;1747815;82;21049;-64
2022/10/15 00:37:25;;;;;;;28.65;15.15;;;;;;;2.43;100.00;100973.52;1747894;82;21085;-65
2022/10/15 00:39:52;;;;;;;33.18;15.10;;;;;;;2.43;100.00;100974.39;1747395;82;21046;-65
2022/10/15 00:42:18;;;;;;;24.90;14.20;;;;;;;2.48;100.00;100975.30;1748209;82;21578;-65
2022/10/15 00:44:57;;;;;;;23.18;14.00;;;;;;;2.52;100.00;100977.51;1733307;82;21547;-64
2022/10/15 00:47:28;;;;;;;24.72;13.78;;;;;;;2.57;100.00;100977.11;1702532;84;21066;-65
2022/10/15 00:50:07;;;;;;;27.07;15.28;;;;;;;2.62;100.00;100978.05;1702518;84;21520;-64
2022/10/15 00:52:58;;;;;;;25.50;13.98;;;;;;;2.64;100.00;100975.45;1701461;84;21016;-65
2022/10/15 00:55:31;;;;;;;26.42;13.60;;;;;;;2.68;100.00;100973.32;1702953;84;21034;-65
2022/10/15 00:58:02;;;;;;;23.30;13.20;;;;;;;2.70;100.00;100976.37;1702763;84;21936;-64
2022/10/15 01:00:28;;;;;;;27.52;15.00;;;;;;;2.77;100.00;100979.04;1702805;84;21106;-64
2022/10/15 01:02:56;;;;;;;38.88;14.15;;;;;;;2.79;100.00;100977.33;1698609;83;21004;-64
2022/10/15 01:05:23;;;;;;;27.55;14.47;;;;;;;2.81;100.00;100978.21;1698170;84;21076;-64
2022/10/15 01:07:50;;;;;;;23.52;13.80;;;;;;;2.79;100.00;100976.89;1697981;84;21083;-66
2022/10/15 01:10:16;;;;;;;23.65;13.65;;;;;;;2.79;100.00;100978.63;1698231;84;21231;-65
2022/10/15 01:13:13;;;;;;;28.42;14.10;;;;;;;2.80;100.00;100973.84;1697820;84;21063;-65
2022/10/15 01:15:52;;;;;;;20.23;11.95;;;;;;;2.79;100.00;100974.72;1697769;84;21059;-65
2022/10/15 01:18:27;;;;;;;23.50;12.40;;;;;;;2.79;100.00;100976.02;1697632;83;21068;-65
2022/10/15 01:21:28;;;;;;;22.95;12.28;;;;;;;2.78;100.00;100976.42;1697823;83;21493;-64
2022/10/15 01:24:21;;;;;;;30.57;14.20;;;;;;;2.85;100.00;100974.75;1697734;84;21915;-64
2022/10/15 01:27:11;;;;;;;25.43;13.70;;;;;;;2.87;100.00;100975.20;1697751;84;21043;-65
2022/10/15 01:29:54;;;;;;;27.50;13.58;;;;;;;2.88;100.00;100974.80;1674146;84;21086;-64
2022/10/15 01:32:28;;;;;;;24.15;12.43;;;;;;;2.88;100.00;100977.41;1676969;84;21630;-64
2022/10/15 01:35:16;;;;;;;27.75;12.58;;;;;;;2.85;100.00;100976.05;1697667;83;21627;-65
2022/10/15 01:38:09;;;;;;;26.42;11.48;;;;;;;2.83;100.00;100976.47;1697298;84;21262;-65
2022/10/15 01:40:58;;;;;;;22.27;12.65;;;;;;;2.82;100.00;100973.44;1697567;83;21023;-64
2022/10/15 01:43:38;;;;;;;22.58;12.50;;;;;;;2.84;100.00;100978.23;1697451;84;21512;-65
2022/10/15 01:46:12;;;;;;;28.30;12.30;;;;;;;2.86;100.00;100978.67;1672926;83;21660;-64
2022/10/15 01:48:43;;;;;;;21.37;11.50;;;;;;;2.92;100.00;100981.74;1711204;83;21077;-68
2022/10/15 01:51:11;;;;;;;21.30;11.63;;;;;;;2.93;100.00;100980.91;1712715;83;21590;-64
2022/10/15 01:53:38;;;;;;;18.85;10.50;;;;;;;2.93;100.00;100981.77;1684314;83;21061;-65
2022/10/15 01:56:10;;;;;;;26.93;11.95;;;;;;;2.98;100.00;100987.45;1712859;83;21034;-66
2022/10/15 01:58:40;;;;;;;25.67;11.67;;;;;;;3.02;100.00;100984.88;1712849;83;21066;-64
2022/10/15 02:01:06;;;;;;;22.07;12.33;;;;;;;3.03;100.00;100987.91;1726459;82;21570;-65
2022/10/15 02:03:50;;;;;;;17.87;11.65;;;;;;;3.05;100.00;100991.39;1734057;82;21243;-65
2022/10/15 02:06:33;;;;;;;27.10;13.10;;;;;;;3.11;100.00;100992.75;1734124;82;21121;-65
2022/10/15 02:09:34;;;;;;;24.77;12.78;;;;;;;3.11;100.00;100996.66;1734085;82;21060;-64
2022/10/15 02:12:22;;;;;;;25.43;13.15;;;;;;;3.19;100.00;100997.14;1734186;82;21053;-64
2022/10/15 02:14:55;;;;;;;20.82;12.73;;;;;;;3.27;100.00;100994.17;1734310;82;21082;-66
2022/10/15 02:17:30;;;;;;;21.20;11.85;;;;;;;3.33;100.00;100994.19;1734363;82;21502;-65
2022/10/15 02:20:14;;;;;;;23.25;13.18;;;;;;;3.43;100.00;100998.61;1679356;84;21019;-65
2022/10/15 02:23:05;;;;;;;28.85;13.25;;;;;;;3.50;100.00;100996.48;1679372;85;21078;-65
2022/10/15 02:25:32;;;;;;;21.50;12.40;;;;;;;3.54;100.00;101000.84;1638104;85;21563;-64
2022/10/15 02:28:00;;;;;;;25.72;14.30;;;;;;;3.59;100.00;100999.57;1679581;85;22260;-65
2022/10/15 02:30:26;;;;;;;25.10;13.28;;;;;;;3.65;100.00;101001.33;1679246;85;21115;-64
2022/10/15 02:32:55;;;;;;;26.55;14.20;;;;;;;3.77;100.00;101003.98;1679374;85;21086;-65
2022/10/15 02:35:23;;;;;;;25.90;12.80;;;;;;;3.81;100.00;100999.67;1679552;85;21562;-64
2022/10/15 02:37:51;;;;;;;23.45;12.78;;;;;;;3.91;100.00;101002.33;1679584;85;21095;-64
2022/10/15 02:40:22;;;;;;;19.35;12.15;;;;;;;3.99;100.00;101001.05;1679494;85;21093;-65
2022/10/15 02:42:50;;;;;;;23.77;13.90;;;;;;;4.02;100.00;101002.35;1679250;85;21888;-65
2022/10/15 02:45:17;;;;;;;21.65;12.00;;;;;;;4.09;100.00;101001.95;1679469;85;21106;-65
2022/10/15 02:47:43;;;;;;;26.77;14.90;;;;;;;4.13;100.00;100997.19;1679391;85;21126;-66
2022/10/15 02:50:10;;;;;;;30.27;13.75;;;;;;;4.18;100.00;101003.28;1659608;85;21186;-64
2022/10/15 02:52:38;;;;;;;26.80;13.98;;;;;;;4.24;100.00;101004.61;1679312;85;21053;-67
2022/10/15 02:55:07;;;;;;;28.47;14.28;;;;;;;4.28;100.00;101007.67;1679513;85;21266;-65
2022/10/15 02:57:35;;;;;;;28.60;14.47;;;;;;;4.28;100.00;101007.67;1679621;85;21087;-64
2022/10/15 03:00:05;;;;;;;23.85;13.68;;;;;;;4.32;100.00;101009.84;1679182;85;21113;-67
2022/10/15 03:02:32;;;;;;;23.52;13.65;;;;;;;4.37;100.00;101007.70;1737686;80;21046;-64
2022/10/15 03:04:59;;;;;;;23.77;13.35;;;;;;;4.40;100.00;101005.09;1742287;82;21092;-64
2022/10/15 03:07:26;;;;;;;23.20;11.93;;;;;;;4.45;100.00;101010.31;1742431;82;21934;-64
2022/10/15 03:09:52;;;;;;;24.70;12.70;;;;;;;4.48;100.00;101005.53;1742373;82;21014;-63
2022/10/15 03:12:22;;;;;;;26.48;13.30;;;;;;;4.50;100.00;100992.06;1742410;82;21145;-64
2022/10/15 03:15:10;;;;;;;20.05;11.93;;;;;;;4.56;100.00;101000.77;1669699;84;21625;-65
2022/10/15 03:17:37;;;;;;;20.00;11.28;;;;;;;4.61;100.00;101003.39;1669887;84;21092;-66
2022/10/15 03:20:06;;;;;;;21.45;12.35;;;;;;;4.68;100.00;101002.52;1641070;85;21832;-66
2022/10/15 03:22:36;;;;;;;23.57;11.85;;;;;;;4.69;100.00;100995.12;1669658;84;21061;-65
2022/10/15 03:25:05;;;;;;;25.57;13.00;;;;;;;4.72;100.00;101000.36;1669870;84;21633;-65
2022/10/15 03:27:32;;;;;;;23.42;12.43;;;;;;;4.72;100.00;100993.83;1670015;85;21037;-65
2022/10/15 03:29:59;;;;;;;24.60;14.35;;;;;;;4.74;100.00;100993.81;1650115;84;21039;-64
2022/10/15 03:32:28;;;;;;;29.37;13.60;;;;;;;4.75;100.00;101000.80;1639532;87;21829;-65
2022/10/15 03:34:55;;;;;;;24.85;13.25;;;;;;;4.74;100.00;100994.70;1639333;87;21110;-65
2022/10/15 03:37:22;;;;;;;27.93;11.73;;;;;;;4.76;100.00;100994.28;1639411;87;21583;-67
2022/10/15 03:39:49;;;;;;;22.32;12.00;;;;;;;4.75;100.00;100996.44;1639644;87;21563;-67
2022/10/15 03:42:17;;;;;;;20.88;10.90;;;;;;;4.77;100.00;100996.01;1639559;87;21677;-65
2022/10/15 03:44:46;;;;;;;20.90;12.98;;;;;;;4.79;100.00;100994.27;1639640;87;21678;-65
2022/10/15 03:47:16;;;;;;;25.90;13.67;;;;;;;4.81;100.00;100995.14;1639751;87;21051;-67
2022/10/15 03:49:47;;;;;;;24.43;12.45;;;;;;;4.81;100.00;100995.59;1639550;87;21072;-66
2022/10/15 03:52:14;;;;;;;21.50;11.20;;;;;;;4.81;100.00;101003.42;1639590;87;21531;-66
2022/10/15 03:54:43;;;;;;;24.47;13.70;;;;;;;4.80;100.00;100993.39;1639766;87;21102;-66
2022/10/15 03:57:10;;;;;;;23.40;11.73;;;;;;;4.82;100.00;100998.17;1639838;87;21164;-64
2022/10/15 03:59:38;;;;;;;18.27;11.33;;;;;;;4.87;100.00;101005.14;1638829;87;21555;-65
2022/10/15 04:02:05;;;;;;;16.02;9.80;;;;;;;4.83;100.00;100997.73;1639621;87;21090;-65
2022/10/15 04:04:32;;;;;;;22.17;11.85;;;;;;;4.82;100.00;100998.17;1639618;87;21106;-65
2022/10/15 04:06:59;;;;;;;20.68;11.30;;;;;;;4.86;100.00;101000.81;1639646;86;21138;-66
2022/10/15 04:09:27;;;;;;;21.77;10.88;;;;;;;4.86;100.00;101002.98;1639538;87;21131;-65
2022/10/15 04:11:56;;;;;;;23.65;10.78;;;;;;;4.89;100.00;101006.02;1637921;87;21591;-65
2022/10/15 04:14:23;;;;;;;19.02;10.28;;;;;;;4.88;100.00;101002.95;1607236;88;21033;-64
2022/10/15 04:16:50;;;;;;;20.80;9.88;;;;;;;4.92;100.00;101002.09;1630317;88;21541;-65
2022/10/15 04:19:21;;;;;;;18.57;9.80;;;;;;;4.94;100.00;101009.49;1630199;88;21092;-65
2022/10/15 04:21:52;;;;;;;20.65;10.28;;;;;;;4.98;100.00;101008.62;1629452;88;21791;-65
2022/10/15 04:24:24;;;;;;;19.65;10.95;;;;;;;5.02;100.00;101007.77;1615306;88;21569;-64
2022/10/15 04:26:51;;;;;;;20.70;10.70;;;;;;;5.06;100.00;101006.87;1630234;87;21645;-64
2022/10/15 04:29:19;;;;;;;21.52;11.28;;;;;;;5.14;100.00;101009.05;1630105;86;21069;-64
2022/10/15 04:31:45;;;;;;;18.65;9.88;;;;;;;5.13;100.00;101006.02;1630382;88;21117;-66
2022/10/15 04:34:12;;;;;;;24.12;10.85;;;;;;;5.17;100.00;101014.70;1630288;88;21247;-65
2022/10/15 04:36:39;;;;;;;20.37;9.90;;;;;;;5.17;100.00;101008.18;1630230;87;21103;-64
2022/10/15 04:39:07;;;;;;;19.87;10.95;;;;;;;5.18;100.00;101002.10;1629750;88;21302;-65
2022/10/15 04:41:42;;;;;;;18.70;9.95;;;;;;;5.14;100.00;100997.30;1630146;88;21590;-65
2022/10/15 04:44:13;;;;;;;20.95;11.30;;;;;;;5.20;100.00;101011.67;1630153;88;21125;-64
2022/10/15 04:46:39;;;;;;;17.65;10.35;;;;;;;5.19;100.00;101002.08;1630265;86;21278;-66
2022/10/15 04:49:11;;;;;;;17.50;9.93;;;;;;;5.20;100.00;101005.14;1627273;88;21098;-65
2022/10/15 04:51:39;;;;;;;23.73;10.60;;;;;;;5.17;100.00;100999.91;1630390;88;21053;-65
2022/10/15 04:54:16;;;;;;;20.12;11.38;;;;;;;5.16;100.00;101008.62;1629256;88;21041;-65
2022/10/15 04:56:49;;;;;;;22.10;10.60;;;;;;;5.14;100.00;101006.45;1629579;88;21117;-65
2022/10/15 04:59:16;;;;;;;22.35;11.00;;;;;;;5.13;100.00;101004.72;1630440;87;22343;-68
2022/10/15 05:01:45;;;;;;;30.48;12.58;;;;;;;5.13;100.00;101006.02;1627095;88;21033;-65
2022/10/15 05:04:11;;;;;;;21.77;12.58;;;;;;;5.15;100.00;101003.39;1630402;86;21125;-64
2022/10/15 05:06:40;;;;;;;22.52;11.53;;;;;;;5.16;100.00;101013.84;1630482;86;21124;-65
2022/10/15 05:09:08;;;;;;;25.48;12.73;;;;;;;5.14;100.00;101012.11;1629123;88;21065;-65
2022/10/15 05:11:39;;;;;;;17.37;10.28;;;;;;;5.15;100.00;101013.83;1630417;87;21173;-66
2022/10/15 05:14:09;;;;;;;22.05;10.90;;;;;;;5.16;100.00;101015.16;1634569;87;21089;-65
2022/10/15 05:16:38;;;;;;;18.57;11.68;;;;;;;5.22;100.00;101016.87;1644272;85;21132;-66
2022/10/15 05:19:07;;;;;;;20.68;11.83;;;;;;;5.30;100.00;101015.58;1644155;85;21652;-66
2022/10/15 05:21:36;;;;;;;19.32;11.50;;;;;;;5.40;100.00;101025.12;1644336;87;21124;-65
2022/10/15 05:24:05;;;;;;;20.80;11.75;;;;;;;5.54;100.00;101023.36;1644336;87;21914;-65
2022/10/15 05:26:43;;;;;;;22.22;11.85;;;;;;;5.89;100.00;101021.97;1623160;87;21085;-65
2022/10/15 05:29:10;;;;;;;20.90;12.00;;;;;;;6.33;100.00;101021.38;1644313;85;21152;-64
2022/10/15 05:31:38;;;;;;;24.12;13.35;;;;;;;6.72;100.00;101027.25;1644373;85;21121;-65
2022/10/15 05:34:08;;;;;;;21.60;12.05;;;;;;;6.97;100.00;101021.81;1643271;87;21084;-65
2022/10/15 05:36:36;;;;;;;24.15;13.05;;;;;;;7.16;100.00;101027.34;1643853;87;22167;-65
2022/10/15 05:39:06;;;;;;;27.48;13.30;;;;;;;7.32;100.00;101030.25;1644078;87;21184;-65
2022/10/15 05:41:35;;;;;;;25.32;14.05;;;;;;;7.48;100.00;101027.49;1643594;87;21092;-65
2022/10/15 05:44:03;;;;;;;22.17;13.98;;;;;;;7.60;100.00;101033.91;1644114;85;21156;-65
2022/10/15 05:46:29;;;;;;;23.70;13.95;;;;;;;7.63;100.00;101031.70;1644430;87;21128;-65
2022/10/15 05:48:57;;;;;;;22.55;12.60;;;;;;;7.64;100.00;101034.31;1644194;85;21236;-66
2022/10/15 05:51:26;;;;;;;23.07;13.32;;;;;;;7.71;100.00;101038.60;1644292;86;21159;-66
2022/10/15 05:53:55;;;;;;;18.25;12.05;;;;;;;7.85;100.00;101037.59;1644585;87;21069;-65
2022/10/15 05:56:23;;;;;;;16.17;10.85;;;;;;;8.02;100.00;101031.69;1644307;85;21560;-66
2022/10/15 05:58:49;;;;;;;17.05;11.57;;;;;;;8.26;100.00;101029.63;1644112;87;21092;-65
2022/10/15 06:01:18;;;;;;;18.02;11.22;;;;;;;8.59;99.00;101037.09;1644246;85;21124;-65
2022/10/15 06:03:47;;;;;;;19.20;10.58;;;;;;;9.11;97.60;101036.75;1643544;87;21081;-65
2022/10/15 06:06:21;;;;;;;19.82;10.60;;;;;;;9.68;94.12;101038.80;1644315;85;21136;-64
2022/10/15 06:08:49;;;;;;;18.37;11.35;;;;;;;10.31;91.65;101030.98;1644076;87;21124;-65
2022/10/15 06:11:18;;;;;;;20.00;11.43;;;;;;;11.03;87.64;101031.52;1644462;87;21077;-66
2022/10/15 06:13:45;;;;;;;20.82;11.88;;;;;;;11.66;78.23;101026.39;1644216;87;21191;-66
2022/10/15 06:16:13;;;;;;;15.55;10.18;;;;;;;12.22;73.97;101030.56;1644343;87;21065;-65
2022/10/15 06:18:40;;;;;;;15.53;10.60;;;;;;;12.65;63.08;101031.88;1644370;87;21092;-66
2022/10/15 06:21:09;;;;;;;16.05;9.40;;;;;;;13.22;61.66;101038.84;1644145;85;21731;-65
2022/10/15 06:23:35;;;;;;;14.65;9.70;;;;;;;13.81;58.01;101032.91;1618189;87;21683;-65
2022/10/15 06:26:05;;;;;;;13.03;9.68;;;;;;;14.30;55.93;101031.08;1644239;85;21260;-68
2022/10/15 06:28:33;;;;;;;13.03;9.10;;;;;;;14.78;53.34;101036.74;1644275;85;21072;-66
2022/10/15 06:31:00;;;;;;;12.98;8.75;;;;;;;15.00;51.32;101035.86;1644179;87;21125;-67
2022/10/15 06:33:30;;;;;;;13.80;8.43;;;;;;;15.00;49.10;101031.88;1644196;87;21080;-65
2022/10/15 06:36:08;;;;;;;13.98;8.58;;;;;;;14.94;49.33;101030.83;1644265;87;21061;-65
2022/10/15 06:38:38;;;;;;;11.25;7.67;;;;;;;14.99;48.58;101031.50;1644362;87;21064;-65
2022/10/15 06:41:07;;;;;;;14.43;7.40;;;;;;;15.18;47.57;101036.42;1644170;85;21353;-65
2022/10/15 06:43:34;;;;;;;13.08;7.22;;;;;;;15.27;47.87;101041.34;1643966;87;21072;-66
2022/10/15 06:46:01;;;;;;;14.75;7.40;;;;;;;15.51;47.31;101037.27;1644354;85;21053;-66
2022/10/15 06:48:28;;;;;;;12.23;7.65;;;;;;;15.65;46.92;101036.67;1644452;87;21167;-66
2022/10/15 06:51:00;;;;;;;11.45;7.65;;;;;;;15.96;46.62;101037.52;1644525;85;21250;-65
2022/10/15 06:53:28;;;;;;;10.08;5.83;;;;;;;16.43;45.58;101031.83;1644494;87;21561;-65
2022/10/15 06:55:59;;;;;;;14.07;6.10;;;;;;;16.81;43.55;101035.80;1644585;87;21037;-67
2022/10/15 06:58:25;;;;;;;11.90;6.45;;;;;;;17.02;42.65;101031.70;1644469;87;21140;-66
2022/10/15 07:00:52;;;;;;;10.85;6.58;;;;;;;17.06;40.78;101029.28;1644316;87;21083;-67
2022/10/15 07:03:18;;;;;;;10.65;6.65;;;;;;;17.26;42.07;101033.63;1644197;87;21870;-67
2022/10/15 07:05:46;;;;;;;10.93;6.30;;;;;;;17.53;41.93;101041.97;1644291;85;21112;-66
2022/10/15 07:08:12;;;;;;;14.25;6.45;;;;;;;17.94;40.71;101037.65;1644286;87;21109;-66
2022/10/15 07:10:38;;;;;;;10.63;6.78;;;;;;;18.39;39.71;101040.11;1644201;85;21136;-65
2022/10/15 07:13:05;;;;;;;13.35;7.35;;;;;;;18.64;38.02;101035.12;1644285;87;21156;-66
2022/10/15 07:15:32;;;;;;;11.40;6.33;;;;;;;18.70;37.69;101040.57;1636457;86;21264;-66
2022/10/15 07:18:02;;;;;;;12.43;6.00;;;;;;;18.85;37.43;101040.22;1632435;87;21779;-66
2022/10/15 07:20:30;;;;;;;15.03;6.85;;;;;;;18.74;38.08;101034.61;1632326;87;21503;-67
2022/10/15 07:23:00;;;;;;;12.50;7.28;;;;;;;18.84;37.74;101038.48;1632598;87;21053;-66
2022/10/15 07:25:29;;;;;;;11.33;6.78;;;;;;;18.71;37.80;101033.45;1632394;87;21053;-67
2022/10/15 07:27:56;;;;;;;9.18;6.10;;;;;;;18.96;38.40;101037.80;1632241;87;21288;-65
2022/10/15 07:30:26;;;;;;;10.72;5.53;;;;;;;19.15;36.71;101033.58;1632129;86;21785;-65
2022/10/15 07:32:55;;;;;;;11.03;5.60;;;;;;;19.47;36.06;101037.50;1632288;86;21053;-67
2022/10/15 07:35:22;;;;;;;9.03;5.75;;;;;;;19.62;35.94;101046.39;1632363;86;21073;-65
2022/10/15 07:37:49;;;;;;;10.45;5.65;;;;;;;19.87;35.65;101039.96;1632287;86;21128;-67
2022/10/15 07:40:17;;;;;;;9.20;5.10;;;;;;;20.22;34.83;101042.73;1632303;86;21820;-66
2022/10/15 07:42:44;;;;;;;9.60;5.78;;;;;;;20.29;34.41;101044.06;1632263;86;21129;-67
2022/10/15 07:45:12;;;;;;;9.03;5.25;;;;;;;20.57;34.56;101043.22;1632166;86;21553;-66
2022/10/15 07:47:40;;;;;;;9.43;5.60;;;;;;;20.85;34.16;101041.42;1632152;87;21652;-67
2022/10/15 07:50:08;;;;;;;10.32;5.42;;;;;;;20.96;33.59;101046.94;1632023;86;21130;-67
2022/10/15 07:52:35;;;;;;;12.58;5.45;;;;;;;21.17;33.07;101036.61;1632194;87;21265;-67
2022/10/15 07:55:02;;;;;;;9.60;4.95;;;;;;;21.34;32.52;101043.50;1631985;87;21146;-67
2022/10/15 07:57:29;;;;;;;7.08;4.20;;;;;;;21.63;32.58;101042.04;1632452;87;21124;-67
2022/10/15 07:59:56;;;;;;;7.53;4.83;;;;;;;21.70;31.95;101044.67;1632115;87;21577;-67
2022/10/15 08:02:22;;;;;;;5.75;3.87;;;;;;;21.45;31.46;101043.66;1632670;86;21093;-66
2022/10/15 08:04:49;;;;;;;6.80;4.00;;;;;;;21.48;32.02;101051.48;1632224;87;21264;-68
2022/10/15 08:07:15;;;;;;;12.43;4.28;;;;;;;21.83;31.30;101040.63;1632223;87;21089;-68
2022/10/15 08:09:42;;;;;;;7.42;4.10;;;;;;;21.84;30.89;101039.20;1632195;87;21530;-67
2022/10/15 08:12:10;;;;;;;4.90;3.30;;;;;;;21.87;30.31;101042.99;1632421;87;21129;-66
2022/10/15 08:14:37;;;;;;;9.78;3.10;;;;;;;21.96;30.42;101041.50;1633665;87;21096;-67
2022/10/15 08:17:06;;;;;;;6.28;2.90;;;;;;;22.19;29.76;101043.89;1644343;87;21678;-66
2022/10/15 08:19:33;;;;;;;6.85;2.90;;;;;;;22.15;29.06;101043.73;1644188;87;21128;-66
2022/10/15 08:22:00;;;;;;;7.05;3.00;;;;;;;21.79;29.60;101038.67;1644433;87;21190;-67
2022/10/15 08:24:29;;;;;;;7.33;2.77;;;;;;;21.87;29.52;101038.97;1644385;87;21580;-67
2022/10/15 08:26:59;;;;;;;5.60;2.60;;;;;;;21.99;29.56;101039.47;1644357;87;21076;-66
2022/10/15 08:29:26;;;;;;;5.97;3.30;;;;;;;22.31;28.86;101047.55;1644367;85;24742;-66
2022/10/15 08:31:53;;;;;;;4.65;2.65;;;;;;;22.62;28.73;101034.97;1644095;85;21107;-66
2022/10/15 08:34:21;;;;;;;4.53;2.47;;;;;;;22.90;27.85;101040.13;1644326;85;21160;-66
2022/10/15 08:36:51;;;;;;;7.75;2.40;;;;;;;22.79;27.79;101033.72;1644285;87;21064;-66
2022/10/15 08:39:18;;;;;;;3.27;2.00;;;;;;;22.41;27.68;101044.10;1644054;85;21124;-67
2022/10/15 08:41:49;;;;;;;4.80;2.58;;;;;;;22.07;27.98;101036.73;1644341;87;21242;-66
2022/10/15 08:44:28;;;;;;;6.17;2.20;;;;;;;21.78;28.07;101042.30;1644374;87;21105;-66
2022/10/15 08:47:06;;;;;;;4.15;1.92;;;;;;;21.23;28.74;101040.68;1644528;85;22131;-67
2022/10/15 08:49:52;;;;;;;3.00;1.75;;;;;;;20.44;28.95;101044.92;1644334;87;21541;-65
2022/10/15 08:52:45;;;;;;;8.30;1.90;;;;;;;20.43;28.90;101044.53;1644550;87;21096;-66
2022/10/15 08:55:14;;;;;;;4.45;2.00;;;;;;;20.31;29.06;101036.36;1644207;87;21244;-67
2022/10/15 08:58:12;;;;;;;4.03;2.42;;;;;;;20.43;28.83;101041.40;1644550;85;21045;-66
2022/10/15 09:00:45;;;;;;;3.15;1.82;;;;;;;20.24;28.97;101044.36;1644347;87;21127;-67
2022/10/15 09:03:35;;;;;;;4.15;1.65;;;;;;;20.20;29.51;101036.17;1643630;86;21101;-66
2022/10/15 09:06:16;;;;;;;4.53;2.10;;;;;;;20.17;29.47;101036.34;1644468;87;21112;-67
2022/10/15 09:09:05;;;;;;;12.13;2.35;;;;;;;20.30;29.77;101038.62;1644584;87;21152;-66
2022/10/15 09:11:57;;;;;;;5.53;1.85;;;;;;;20.67;29.03;101040.80;1644451;87;21117;-65
2022/10/15 09:14:30;;;;;;;4.97;1.80;;;;;;;20.79;28.37;101033.30;1644281;87;21073;-66
2022/10/15 09:16:56;;;;;;;4.37;2.12;;;;;;;20.17;28.27;101040.35;1644335;87;21529;-65
2022/10/15 09:19:24;;;;;;;4.67;2.20;;;;;;;20.17;29.24;101028.32;1644368;87;21069;-66
2022/10/15 09:21:51;;;;;;;6.92;2.47;;;;;;;20.50;28.95;101031.16;1644296;85;21233;-66
2022/10/15 09:24:23;;;;;;;9.20;2.65;;;;;;;20.86;29.14;101035.09;1644259;87;21569;-66
2022/10/15 09:27:29;;;;;;;6.33;2.47;;;;;;;21.43;28.55;101032.67;1644162;87;22056;-67
2022/10/15 09:30:30;;;;;;;6.67;2.62;;;;;;;21.76;27.50;101036.17;1643720;87;21525;-66
2022/10/15 09:33:08;;;;;;;5.47;2.25;;;;;;;21.63;27.56;101040.70;1644256;87;21080;-67
2022/10/15 09:35:49;;;;;;;6.03;2.27;;;;;;;21.45;27.64;101028.92;1638255;87;21236;-66
2022/10/15 09:38:36;;;;;;;;;;;;;;;21.62;28.33;101033.61;1642403;87;21093;-67
2022/10/15 09:41:20;;;;;;;3.70;1.90;;;;;;;21.99;27.29;101022.04;1644420;87;20211;-67
2022/10/15 09:43:50;;;;;;;3.98;2.02;;;;;;;22.34;27.33;101026.73;1644075;87;21081;-67
2022/10/15 09:46:18;;;;;;;4.45;1.90;;;;;;;22.39;26.52;101017.01;1644641;87;21016;-66
2022/10/15 09:48:54;;;;;;;4.78;1.98;;;;;;;21.76;26.91;101022.77;1644348;87;21344;-66
2022/10/15 09:51:56;;;;;;;5.97;2.17;;;;;;;21.44;27.49;101019.19;1643839;87;21123;-67
2022/10/15 09:54:31;;;;;;;2.85;1.77;;;;;;;21.55;27.67;101019.77;1644735;87;21049;-66
2022/10/15 09:57:00;;;;;;;4.67;1.95;;;;;;;21.89;27.74;101012.91;1643760;87;21120;-66
2022/10/15 09:59:26;;;;;;;5.53;1.75;;;;;;;21.93;27.02;101015.76;1644433;86;21111;-65
2022/10/15 10:02:03;;;;;;;6.62;2.08;;;;;;;22.00;26.76;101018.38;1644224;85;21338;-67
2022/10/15 10:04:33;;;;;;;2.67;1.70;;;;;;;21.98;27.02;101020.30;1641370;87;21551;-67
2022/10/15 10:07:06;;;;;;;3.02;1.92;;;;;;;21.74;26.92;101018.00;1644109;87;21082;-67
2022/10/15 10:09:38;;;;;;;4.65;1.50;;;;;;;21.51;27.19;101021.81;1644004;87;21093;-66
2022/10/15 10:12:07;;;;;;;;;;;;;;;21.37;26.83;101021.84;1645135;87;21161;-65
2022/10/15 10:14:45;;;;;;;3.27;1.52;;;;;;;21.42;27.08;101017.09;1643998;87;21139;-66
2022/10/15 10:17:26;;;;;;;3.17;1.75;;;;;;;21.52;26.95;101017.30;1632264;87;21089;-67
2022/10/15 10:20:14;;;;;;;4.28;2.00;;;;;;;21.60;27.05;101018.11;1632210;86;21140;-66
2022/10/15 10:22:51;;;;;;;4.25;2.15;;;;;;;21.72;27.05;101019.95;1632563;87;21581;-66
2022/10/15 10:25:38;;;;;;;2.45;1.52;;;;;;;21.86;27.16;101011.80;1628754;86;21467;-65
2022/10/15 10:28:16;;;;;;;3.30;1.87;;;;;;;21.96;26.46;101012.84;1632176;86;21555;-65
2022/10/15 10:31:02;;;;;;;4.28;1.82;;;;;;;22.05;26.39;101011.84;1632493;87;21057;-69
2022/10/15 10:33:43;;;;;;;3.65;1.92;;;;;;;21.60;26.92;101020.78;1632108;87;21038;-67
2022/10/15 10:36:30;;;;;;;12.70;2.12;;;;;;;21.56;27.07;101015.65;1632209;87;21129;-67
2022/10/15 10:39:27;;;;;;;4.25;1.60;;;;;;;21.66;27.62;101008.31;1632353;87;21625;-67
2022/10/15 10:41:59;;;;;;;3.80;1.72;;;;;;;21.85;27.53;101018.59;1632207;87;21247;-67
2022/10/15 10:44:34;;;;;;;4.05;1.82;;;;;;;21.74;26.60;101008.61;1632267;87;21104;-66
2022/10/15 10:47:17;;;;;;;3.25;1.87;;;;;;;21.74;26.59;100999.23;1631648;87;21093;-66
2022/10/15 10:49:51;;;;;;;7.60;1.77;;;;;;;21.93;26.95;100999.67;1632352;87;21092;-66
2022/10/15 10:52:33;;;;;;;3.35;1.70;;;;;;;22.33;26.53;101003.53;1632254;87;21129;-66
2022/10/15 10:55:19;;;;;;;3.47;1.72;;;;;;;22.11;26.13;101008.69;1632180;87;21817;-65
2022/10/15 10:57:56;;;;;;;4.92;2.05;;;;;;;21.66;26.68;101004.29;1631937;87;21164;-67
2022/10/15 11:00:42;;;;;;;4.00;1.80;;;;;;;21.50;27.38;101001.32;1632217;87;21074;-65
2022/10/15 11:03:36;;;;;;;4.53;2.10;;;;;;;21.70;27.03;100996.41;1631649;87;21135;-66
2022/10/15 11:06:15;;;;;;;6.20;1.90;;;;;;;21.84;27.14;101005.68;1625623;86;21105;-66
2022/10/15 11:08:56;;;;;;;8.65;2.05;;;;;;;21.73;27.10;101004.23;1632063;87;21553;-69
2022/10/15 11:11:36;;;;;;;4.15;2.08;;;;;;;21.34;27.21;101009.52;1600336;87;22252;-67
2022/10/15 11:14:21;;;;;;;5.05;1.98;;;;;;;20.89;27.83;101004.09;1632029;87;21645;-68
2022/10/15 11:16:58;;;;;;;4.65;2.20;;;;;;;20.48;28.54;100998.30;1632124;86;21608;-67
2022/10/15 11:19:49;;;;;;;5.95;2.42;;;;;;;20.57;28.80;100993.72;1632213;87;21100;-66
2022/10/15 11:22:47;;;;;;;5.75;2.12;;;;;;;20.72;28.39;100986.48;1632267;87;21192;-66
2022/10/15 11:25:26;;;;;;;3.50;2.10;;;;;;;20.46;27.65;100994.38;1632307;87;21153;-66
2022/10/15 11:28:14;;;;;;;3.12;1.77;;;;;;;20.24;28.50;100993.54;1631618;86;21537;-66
2022/10/15 11:30:53;;;;;;;3.70;2.02;;;;;;;20.07;28.51;100993.77;1591311;87;21157;-67
2022/10/15 11:33:36;;;;;;;2.70;1.67;;;;;;;19.66;28.94;100993.16;1632099;87;21129;-68
2022/10/15 11:36:45;;;;;;;6.33;1.80;;;;;;;19.50;29.48;100991.89;1596641;87;21135;-67
2022/10/15 11:39:46;;;;;;;3.25;1.80;;;;;;;19.46;29.61;100997.03;1631619;87;21116;-66
2022/10/15 11:42:24;;;;;;;9.97;1.87;;;;;;;18.86;30.68;100995.23;1632297;87;21041;-65
2022/10/15 11:45:28;;;;;;;4.10;1.82;;;;;;;18.59;31.12;101002.52;1631895;87;21156;-65